Morrison, Argentina
Current Conditions -  °F | °C
As of 12:00 PM on Friday 28 Nov 2014 (Local Time) from SAOC Reporting Station
Clear Clear  
Wind Chill: 82°   Ceiling: Unl
Heat Index: 82°   Visibility: 6mi
Dew Point: 45°   Wind: 30mph
Humidity: 26%   Direction: 340°NNW
Pressure: 29.85"   Gusts: 41mph
Location:  32.6°S, 62.83°W
Report Text: SAOC 281500Z 34026G36KT CAVOK 28/07 Q1011
Loading
Personal Weather Stations






























Interactive Weather Map New forecast layout! Learn more

10-Day Weather Forecast

Advertisements
Track Severe Weather on mobile